Time;durP1;ratioP1;P1;durP2;ratioP2;P2;SDS_P1;SDS_P2;PMS_P1;PMS_P2;Temp;Humidity;BMP_temperature;BMP_pressure;BME280_temperature;BME280_humidity;BME280_pressure;Samples;Min_cycle;Max_cycle;Signal;HPM_P1;HPM_P2
2021/12/28 11:06:57;;;;;;;144.50;60.30;;;8.00;99.90;;;;;;5070608;28;20044;-68
2021/12/28 11:09:25;;;;;;;137.10;61.58;;;8.80;99.90;;;;;;5064859;28;20450;-68
2021/12/28 11:11:56;;;;;;;154.88;62.28;;;9.30;99.90;;;;;;5072964;28;20166;-68
2021/12/28 11:14:27;;;;;;;135.45;59.05;;;9.70;99.90;;;;;;5076176;28;20033;-67
2021/12/28 11:16:56;;;;;;;155.13;61.67;;;9.80;99.90;;;;;;5074758;28;20094;-68
2021/12/28 11:19:25;;;;;;;124.75;55.47;;;10.10;99.90;;;;;;5063697;28;20031;-68
2021/12/28 11:21:54;;;;;;;125.15;55.88;;;10.20;99.90;;;;;;5068647;28;20493;-68
2021/12/28 11:24:20;;;;;;;128.55;53.50;;;10.60;99.90;;;;;;5059463;28;20478;-69
2021/12/28 11:26:51;;;;;;;126.82;54.53;;;10.80;99.90;;;;;;5069598;28;20043;-68
2021/12/28 11:29:20;;;;;;;142.23;59.47;;;11.40;99.90;;;;;;5066299;28;20115;-68
2021/12/28 11:31:56;;;;;;;139.30;57.95;;;11.60;99.90;;;;;;5054922;28;20040;-67
2021/12/28 11:34:30;;;;;;;129.93;58.60;;;10.90;99.90;;;;;;5075745;28;20040;-67
2021/12/28 11:37:01;;;;;;;135.98;57.35;;;10.90;99.90;;;;;;5074560;28;20032;-66
2021/12/28 11:39:38;;;;;;;130.30;58.33;;;11.20;99.90;;;;;;5075421;28;20036;-66
2021/12/28 11:42:06;;;;;;;145.30;60.53;;;11.40;99.90;;;;;;5075404;28;20036;-67
2021/12/28 11:44:34;;;;;;;136.13;58.88;;;11.50;99.90;;;;;;5065575;28;20024;-67
2021/12/28 11:47:07;;;;;;;140.82;61.63;;;11.60;99.90;;;;;;5062419;28;20458;-67
2021/12/28 11:49:35;;;;;;;138.88;60.05;;;12.10;99.90;;;;;;5077557;28;20056;-67
2021/12/28 11:52:05;;;;;;;145.50;62.25;;;13.00;99.90;;;;;;5057612;28;20095;-67
2021/12/28 11:54:34;;;;;;;126.40;59.47;;;13.10;99.90;;;;;;5063617;28;20032;-67
2021/12/28 11:57:17;;;;;;;147.80;69.63;;;14.00;99.90;;;;;;5084845;28;20048;-67
2021/12/28 11:59:55;;;;;;;156.07;71.88;;;14.30;97.10;;;;;;5069957;28;20032;-66
2021/12/28 12:02:43;;;;;;;154.57;73.57;;;14.30;98.50;;;;;;5074017;28;20033;-66
2021/12/28 12:05:15;;;;;;;182.23;80.95;;;14.90;96.20;;;;;;5069295;28;20047;-66
2021/12/28 12:07:42;;;;;;;149.77;76.35;;;15.00;95.90;;;;;;5052474;28;20644;-66
2021/12/28 12:10:17;;;;;;;171.05;78.43;;;14.70;95.00;;;;;;5018631;28;1363604;-66
2021/12/28 12:12:43;;;;;;;153.25;73.43;;;14.20;97.40;;;;;;5071171;28;20040;-65
2021/12/28 12:15:13;;;;;;;155.65;75.57;;;14.20;96.70;;;;;;5064657;28;20045;-65
2021/12/28 12:17:43;;;;;;;170.35;77.10;;;14.00;98.50;;;;;;5025368;28;20057;-65
2021/12/28 12:20:30;;;;;;;161.38;78.18;;;15.20;95.60;;;;;;4992792;28;20138;-65
2021/12/28 12:23:18;;;;;;;186.50;84.85;;;15.10;95.30;;;;;;5062820;28;20071;-65
2021/12/28 12:25:47;;;;;;;170.60;85.55;;;15.50;94.60;;;;;;5068543;28;20040;-65
2021/12/28 12:28:14;;;;;;;174.07;84.53;;;15.10;95.30;;;;;;5075923;28;20040;-64
2021/12/28 12:30:45;;;;;;;189.88;91.63;;;15.40;94.90;;;;;;5050952;28;20095;-65
2021/12/28 12:33:12;;;;;;;170.57;86.30;;;15.50;94.70;;;;;;5018081;28;20040;-65
2021/12/28 12:35:49;;;;;;;162.27;76.30;;;16.00;93.50;;;;;;5070916;28;20060;-65
2021/12/28 12:38:16;;;;;;;164.63;77.65;;;15.60;94.80;;;;;;5056424;28;20037;-64
2021/12/28 12:41:01;;;;;;;174.20;82.68;;;15.20;94.60;;;;;;5040056;28;20498;-65
2021/12/28 12:43:38;;;;;;;158.68;78.72;;;15.70;94.20;;;;;;5086753;28;20032;-65
2021/12/28 12:46:10;;;;;;;185.95;85.28;;;16.00;94.00;;;;;;5094573;28;20089;-64
2021/12/28 12:48:36;;;;;;;180.82;80.63;;;15.80;93.90;;;;;;5081064;28;20028;-64
2021/12/28 12:51:27;;;;;;;173.27;81.63;;;16.00;93.70;;;;;;5069704;28;20039;-64
2021/12/28 12:54:02;;;;;;;149.13;78.07;;;16.10;93.30;;;;;;5057929;28;20120;-65
2021/12/28 12:56:33;;;;;;;143.55;73.13;;;16.30;93.80;;;;;;5072460;28;20425;-65
2021/12/28 12:59:03;;;;;;;160.23;77.45;;;16.10;92.30;;;;;;5074414;28;20135;-65
2021/12/28 13:01:33;;;;;;;157.65;77.22;;;15.60;94.90;;;;;;5092580;28;20032;-65
2021/12/28 13:04:00;;;;;;;164.35;75.47;;;15.50;94.30;;;;;;5094274;28;20359;-64
2021/12/28 13:06:41;;;;;;;149.13;74.40;;;15.40;95.70;;;;;;5093830;28;20028;-65
2021/12/28 13:09:15;;;;;;;158.75;75.18;;;16.00;93.80;;;;;;5063642;28;20071;-64
2021/12/28 13:11:43;;;;;;;168.32;77.63;;;15.70;94.50;;;;;;5072354;28;20470;-64
2021/12/28 13:14:11;;;;;;;148.20;77.38;;;15.90;93.80;;;;;;5076364;28;20040;-64
2021/12/28 13:16:37;;;;;;;174.45;80.15;;;16.00;93.50;;;;;;5073791;28;20037;-64
2021/12/28 13:19:11;;;;;;;175.90;78.63;;;16.30;93.70;;;;;;5073678;28;20067;-64
2021/12/28 13:21:38;;;;;;;172.00;80.28;;;16.50;92.50;;;;;;5073365;28;20026;-64
2021/12/28 13:24:13;;;;;;;156.90;74.45;;;16.30;92.20;;;;;;5069587;28;20033;-64
2021/12/28 13:26:46;;;;;;;183.57;81.47;;;16.50;91.50;;;;;;5074874;28;20382;-63
2021/12/28 13:29:21;;;;;;;181.50;79.63;;;15.50;94.20;;;;;;5074867;28;20064;-63
2021/12/28 13:31:47;;;;;;;169.82;79.75;;;15.30;95.00;;;;;;5073738;28;20119;-62
2021/12/28 13:34:13;;;;;;;179.93;81.45;;;14.30;96.70;;;;;;5084922;28;20647;-62
2021/12/28 13:36:54;;;;;;;174.93;82.05;;;13.80;98.40;;;;;;5091491;28;20122;-62
2021/12/28 13:39:22;;;;;;;165.38;77.63;;;13.60;99.00;;;;;;5079574;28;20071;-62
2021/12/28 13:41:53;;;;;;;180.80;79.40;;;13.10;99.90;;;;;;5073428;28;20068;-62
2021/12/28 13:44:20;;;;;;;190.02;80.72;;;13.10;99.90;;;;;;5071949;28;20091;-62
2021/12/28 13:46:46;;;;;;;171.98;78.00;;;13.10;99.90;;;;;;5066916;28;20085;-62
2021/12/28 13:49:16;;;;;;;169.38;78.18;;;13.00;99.90;;;;;;5071883;28;20394;-62
2021/12/28 13:51:42;;;;;;;174.10;79.40;;;12.80;99.90;;;;;;5069270;28;20105;-62
2021/12/28 13:54:08;;;;;;;203.40;84.25;;;12.70;99.90;;;;;;5072085;28;20444;-63
2021/12/28 13:56:45;;;;;;;189.20;87.70;;;13.00;99.90;;;;;;5074365;28;20043;-63
2021/12/28 13:59:14;;;;;;;172.32;82.82;;;13.50;99.90;;;;;;5072330;28;20496;-63
2021/12/28 14:01:44;;;;;;;161.25;76.75;;;14.10;99.90;;;;;;5080378;28;20490;-63
2021/12/28 14:04:17;;;;;;;175.48;90.45;;;14.40;99.10;;;;;;5067694;28;20844;-63
2021/12/28 14:06:46;;;;;;;161.05;81.25;;;14.80;98.10;;;;;;5080535;28;20040;-63
2021/12/28 14:09:22;;;;;;;137.98;71.30;;;15.20;96.90;;;;;;5067140;28;20037;-63
2021/12/28 14:11:53;;;;;;;154.90;71.80;;;15.30;96.00;;;;;;5079353;28;20127;-63
2021/12/28 14:14:20;;;;;;;157.65;76.45;;;15.60;95.20;;;;;;5071967;28;20036;-63
2021/12/28 14:17:09;;;;;;;166.30;80.28;;;15.70;94.90;;;;;;5072999;28;20063;-63
2021/12/28 14:19:38;;;;;;;162.77;79.57;;;15.80;94.60;;;;;;5063599;28;20033;-62
2021/12/28 14:22:13;;;;;;;173.10;80.65;;;14.90;96.40;;;;;;5067885;28;20032;-62
2021/12/28 14:24:44;;;;;;;172.82;77.10;;;14.30;98.30;;;;;;5072860;28;20058;-62
2021/12/28 14:27:23;;;;;;;205.00;82.80;;;14.00;98.60;;;;;;5077128;28;20044;-62
2021/12/28 14:30:10;;;;;;;180.73;80.20;;;13.40;99.90;;;;;;5077266;28;20033;-61
2021/12/28 14:32:44;;;;;;;191.13;82.13;;;12.80;99.90;;;;;;5077350;28;20044;-61
2021/12/28 14:35:12;;;;;;;166.13;70.95;;;12.90;99.90;;;;;;5077047;28;20040;-62
2021/12/28 14:37:40;;;;;;;179.25;72.88;;;13.40;99.90;;;;;;5077256;28;20040;-62
2021/12/28 14:40:27;;;;;;;179.80;77.75;;;13.30;99.90;;;;;;5076939;28;20068;-61
2021/12/28 14:42:54;;;;;;;147.77;73.68;;;13.20;99.90;;;;;;5076874;28;20418;-61
2021/12/28 14:45:27;;;;;;;151.48;67.45;;;12.80;99.90;;;;;;5076976;28;20036;-61
2021/12/28 14:47:54;;;;;;;158.82;75.15;;;12.10;99.90;;;;;;5076798;28;20044;-61
2021/12/28 14:50:32;;;;;;;173.88;73.75;;;11.90;99.90;;;;;;5077079;28;20036;-61
2021/12/28 14:53:00;;;;;;;196.93;85.63;;;11.20;99.90;;;;;;5076938;28;20036;-61
2021/12/28 14:55:40;;;;;;;189.82;83.95;;;11.00;99.90;;;;;;5076951;28;20044;-61
2021/12/28 14:58:09;;;;;;;162.57;80.03;;;10.60;99.90;;;;;;5076752;28;20036;-61
2021/12/28 15:00:43;;;;;;;163.20;76.80;;;10.30;99.90;;;;;;5076804;28;20131;-61
2021/12/28 15:03:16;;;;;;;171.25;80.55;;;10.00;99.90;;;;;;5076761;28;20051;-61
2021/12/28 15:05:54;;;;;;;183.68;83.97;;;9.60;99.90;;;;;;5076571;28;20029;-61
2021/12/28 15:08:22;;;;;;;214.88;89.15;;;9.30;99.90;;;;;;5076667;28;20032;-61
2021/12/28 15:10:50;;;;;;;245.00;94.45;;;9.00;99.90;;;;;;5076587;28;20044;-61
2021/12/28 15:13:22;;;;;;;220.10;85.38;;;8.80;99.90;;;;;;5075985;28;20056;-61
2021/12/28 15:15:49;;;;;;;214.63;85.50;;;8.60;99.90;;;;;;5076447;28;20303;-61
2021/12/28 15:18:16;;;;;;;161.65;73.43;;;8.40;99.90;;;;;;5076382;28;20036;-61
2021/12/28 15:20:43;;;;;;;166.70;73.57;;;8.30;99.90;;;;;;5076822;28;20103;-61
2021/12/28 15:23:10;;;;;;;189.02;78.55;;;8.20;99.90;;;;;;5076482;28;20067;-61
2021/12/28 15:25:36;;;;;;;179.02;73.03;;;8.00;99.90;;;;;;5076539;28;20064;-61
2021/12/28 15:28:04;;;;;;;187.13;81.50;;;7.90;99.90;;;;;;5076298;28;20493;-60
2021/12/28 15:30:33;;;;;;;195.40;78.00;;;7.80;99.90;;;;;;5076413;28;20410;-61
2021/12/28 15:33:00;;;;;;;178.30;75.05;;;7.70;99.90;;;;;;5041649;28;20041;-60
2021/12/28 15:35:29;;;;;;;166.88;72.90;;;7.50;99.90;;;;;;5076142;28;20501;-61
2021/12/28 15:38:01;;;;;;;160.43;72.13;;;7.40;99.90;;;;;;5075877;28;20528;-60
2021/12/28 15:40:32;;;;;;;175.27;73.80;;;7.30;99.90;;;;;;5075962;28;20037;-61
2021/12/28 15:42:59;;;;;;;167.63;74.40;;;7.20;99.90;;;;;;5076040;28;20503;-61
2021/12/28 15:45:25;;;;;;;148.77;70.03;;;7.10;99.90;;;;;;5075706;28;20041;-61
2021/12/28 15:47:51;;;;;;;165.13;74.72;;;7.00;99.90;;;;;;5076073;28;20120;-61
2021/12/28 15:50:18;;;;;;;156.65;73.43;;;6.80;99.90;;;;;;5075840;28;20510;-61
2021/12/28 15:52:44;;;;;;;142.75;70.07;;;6.70;99.90;;;;;;5075584;28;20033;-60
2021/12/28 15:55:11;;;;;;;169.82;73.80;;;6.70;99.90;;;;;;5075827;28;20091;-61
2021/12/28 15:57:37;;;;;;;212.90;94.70;;;6.60;99.90;;;;;;5075573;28;20114;-61
2021/12/28 16:00:05;;;;;;;205.65;91.63;;;6.50;99.90;;;;;;5075508;28;20521;-61
2021/12/28 16:02:36;;;;;;;217.98;93.55;;;6.50;99.90;;;;;;5075675;28;20091;-60
2021/12/28 16:05:02;;;;;;;313.42;119.72;;;6.50;99.90;;;;;;5075620;28;20037;-60
2021/12/28 16:07:28;;;;;;;207.88;91.22;;;6.50;99.90;;;;;;5075285;28;20032;-61
2021/12/28 16:09:54;;;;;;;178.52;84.60;;;6.40;99.90;;;;;;5075575;28;20032;-61
2021/12/28 16:12:20;;;;;;;337.67;118.95;;;6.40;99.90;;;;;;5075303;28;20079;-61
2021/12/28 16:14:46;;;;;;;305.60;108.25;;;6.20;99.90;;;;;;5075372;28;20033;-61
2021/12/28 16:17:12;;;;;;;426.30;136.07;;;6.20;99.90;;;;;;5075517;28;20048;-60
2021/12/28 16:19:38;;;;;;;195.32;88.65;;;6.10;99.90;;;;;;5075222;28;20041;-61
2021/12/28 16:22:10;;;;;;;175.93;83.47;;;6.00;99.90;;;;;;5075250;28;20060;-61
2021/12/28 16:24:38;;;;;;;210.98;101.00;;;6.00;99.90;;;;;;5074434;28;20033;-61
2021/12/28 16:27:04;;;;;;;219.52;103.00;;;6.00;99.90;;;;;;5075221;28;20371;-61
2021/12/28 16:29:30;;;;;;;219.43;98.57;;;6.00;99.90;;;;;;5075094;28;20450;-61
2021/12/28 16:31:56;;;;;;;236.25;99.43;;;5.80;99.90;;;;;;5075046;28;20265;-61
2021/12/28 16:34:22;;;;;;;258.92;109.88;;;5.80;99.90;;;;;;5074932;28;20490;-61
2021/12/28 16:36:48;;;;;;;361.23;146.75;;;5.60;99.90;;;;;;5073742;28;20036;-61
2021/12/28 16:39:16;;;;;;;456.38;183.80;;;5.50;99.90;;;;;;5074938;28;20470;-61
2021/12/28 16:41:43;;;;;;;409.00;162.57;;;5.50;99.90;;;;;;5074452;28;20115;-61
2021/12/28 16:44:09;;;;;;;337.52;134.57;;;5.50;99.90;;;;;;5074920;28;20032;-61
2021/12/28 16:46:35;;;;;;;311.50;132.02;;;5.50;99.90;;;;;;5074753;28;20363;-61
2021/12/28 16:49:03;;;;;;;281.00;116.82;;;5.30;99.90;;;;;;5074905;28;20036;-61
2021/12/28 16:51:29;;;;;;;309.20;129.25;;;5.20;99.90;;;;;;5074556;28;20112;-61
2021/12/28 16:53:56;;;;;;;295.27;123.20;;;5.10;99.90;;;;;;5074759;28;20119;-61
2021/12/28 16:56:24;;;;;;;391.70;159.50;;;5.10;99.90;;;;;;5074546;28;20035;-61
2021/12/28 16:58:55;;;;;;;356.20;154.05;;;5.10;99.90;;;;;;5074470;28;20119;-61
2021/12/28 17:01:23;;;;;;;306.40;135.00;;;5.00;99.90;;;;;;5074442;28;20040;-61
2021/12/28 17:03:50;;;;;;;326.63;144.75;;;4.90;99.90;;;;;;5074601;28;20086;-61
2021/12/28 17:06:17;;;;;;;400.60;170.82;;;4.90;99.90;;;;;;5074572;28;20032;-61
2021/12/28 17:08:43;;;;;;;434.70;184.90;;;4.80;99.90;;;;;;5074527;28;20040;-61
2021/12/28 17:11:10;;;;;;;470.65;207.00;;;4.80;99.90;;;;;;5074428;28;20049;-61
2021/12/28 17:13:39;;;;;;;471.13;208.07;;;4.80;99.90;;;;;;5057595;28;20036;-61
2021/12/28 17:16:05;;;;;;;352.77;152.85;;;4.70;99.90;;;;;;5054382;28;20033;-61
2021/12/28 17:18:35;;;;;;;370.10;159.95;;;4.60;99.90;;;;;;5054113;28;20037;-61
2021/12/28 17:21:01;;;;;;;338.20;149.68;;;4.60;99.90;;;;;;5054413;28;20029;-61
2021/12/28 17:23:27;;;;;;;281.55;127.05;;;4.60;99.90;;;;;;5054268;28;20041;-61
2021/12/28 17:25:53;;;;;;;405.70;188.93;;;4.40;99.90;;;;;;5054402;28;20426;-61
2021/12/28 17:28:19;;;;;;;389.45;186.20;;;4.50;99.90;;;;;;5054328;28;20040;-61
2021/12/28 17:30:45;;;;;;;584.85;308.67;;;4.40;99.90;;;;;;5054117;28;20076;-61
2021/12/28 17:33:11;;;;;;;560.15;290.40;;;4.40;99.90;;;;;;5054321;28;20183;-61
2021/12/28 17:35:39;;;;;;;450.80;220.38;;;4.40;99.90;;;;;;5054018;28;20117;-61
2021/12/28 17:38:05;;;;;;;446.92;213.35;;;4.30;99.90;;;;;;5053998;28;20044;-61
2021/12/28 17:40:35;;;;;;;387.80;186.50;;;4.20;99.90;;;;;;5058519;28;20040;-61
2021/12/28 17:43:01;;;;;;;423.70;207.63;;;4.10;99.90;;;;;;5074178;28;20115;-61
2021/12/28 17:45:27;;;;;;;509.38;253.00;;;4.10;99.90;;;;;;5073986;28;20109;-61
2021/12/28 17:47:53;;;;;;;517.60;252.05;;;4.10;99.90;;;;;;5074166;28;20065;-61
2021/12/28 17:50:23;;;;;;;500.85;241.32;;;4.10;99.90;;;;;;5074165;28;20033;-61
2021/12/28 17:52:49;;;;;;;536.15;272.92;;;4.00;99.90;;;;;;5074044;28;20041;-61
2021/12/28 17:55:15;;;;;;;543.70;276.73;;;4.10;99.90;;;;;;5074036;28;20040;-61
2021/12/28 17:57:41;;;;;;;547.53;276.77;;;4.10;99.90;;;;;;5073899;28;20037;-61
2021/12/28 18:00:11;;;;;;;563.97;278.60;;;3.90;99.90;;;;;;5073943;28;20394;-61
2021/12/28 18:02:37;;;;;;;622.40;304.65;;;3.90;99.90;;;;;;5074346;28;20562;-61
2021/12/28 18:05:04;;;;;;;811.80;377.10;;;3.90;99.90;;;;;;5073972;28;20119;-61
2021/12/28 18:07:30;;;;;;;980.28;454.05;;;3.80;99.90;;;;;;5073865;28;20130;-61
2021/12/28 18:09:57;;;;;;;872.67;415.17;;;3.80;99.90;;;;;;5073776;28;20048;-61
2021/12/28 18:12:23;;;;;;;733.10;364.67;;;3.80;99.90;;;;;;5073738;28;20119;-61
2021/12/28 18:14:50;;;;;;;629.75;315.67;;;3.80;99.90;;;;;;5073997;28;20035;-61
2021/12/28 18:17:17;;;;;;;650.15;322.40;;;3.80;99.90;;;;;;5073551;28;20486;-61
2021/12/28 18:19:44;;;;;;;663.40;327.25;;;3.80;99.90;;;;;;5073912;28;20087;-61
2021/12/28 18:22:10;;;;;;;689.00;351.67;;;3.80;99.90;;;;;;5073632;28;20040;-61
2021/12/28 18:24:36;;;;;;;730.28;366.70;;;3.80;99.90;;;;;;5073848;28;20539;-61
2021/12/28 18:27:03;;;;;;;712.25;345.58;;;3.80;99.90;;;;;;5073841;28;20482;-61
2021/12/28 18:29:33;;;;;;;833.15;391.98;;;3.80;99.90;;;;;;5073473;28;20044;-61
2021/12/28 18:32:01;;;;;;;890.35;429.02;;;3.80;99.90;;;;;;5073729;28;20029;-61
2021/12/28 18:34:27;;;;;;;895.60;430.52;;;3.70;99.90;;;;;;5073691;28;20032;-61
2021/12/28 18:36:53;;;;;;;1004.00;469.35;;;3.70;99.90;;;;;;5073361;28;20070;-61
2021/12/28 18:39:19;;;;;;;602.13;304.23;;;3.80;99.90;;;;;;5073848;28;20037;-61
2021/12/28 18:41:46;;;;;;;576.60;288.40;;;3.70;99.90;;;;;;5073442;28;20041;-61
2021/12/28 18:44:12;;;;;;;645.67;309.95;;;3.70;99.90;;;;;;5073589;28;20040;-61
2021/12/28 18:46:40;;;;;;;663.28;329.10;;;3.70;99.90;;;;;;5073596;28;20037;-61
2021/12/28 18:49:07;;;;;;;676.15;338.48;;;3.70;99.90;;;;;;5077105;28;20073;-61
2021/12/28 18:51:33;;;;;;;783.45;364.25;;;3.70;99.90;;;;;;5076795;28;20041;-61
2021/12/28 18:54:00;;;;;;;998.25;450.70;;;3.70;99.90;;;;;;5077352;28;20056;-61
2021/12/28 18:56:26;;;;;;;813.75;376.10;;;3.70;99.90;;;;;;5059009;28;20237;-61
2021/12/28 18:58:54;;;;;;;842.17;389.77;;;3.70;99.90;;;;;;5076859;28;20127;-61
2021/12/28 19:01:20;;;;;;;860.67;391.08;;;3.70;99.90;;;;;;5076798;28;20036;-61
2021/12/28 19:03:46;;;;;;;826.42;380.80;;;3.80;99.90;;;;;;5076842;28;20033;-61
2021/12/28 19:06:13;;;;;;;727.20;351.05;;;3.80;99.90;;;;;;5076777;28;20500;-61
2021/12/28 19:08:39;;;;;;;561.88;282.75;;;3.80;99.90;;;;;;5076840;28;20045;-61
2021/12/28 19:11:06;;;;;;;668.45;332.30;;;3.80;99.90;;;;;;5076744;28;20478;-61
2021/12/28 19:13:33;;;;;;;617.97;303.52;;;3.90;99.90;;;;;;5076976;28;20029;-61
2021/12/28 19:16:01;;;;;;;527.85;258.25;;;3.80;99.90;;;;;;5076573;28;20034;-61
2021/12/28 19:18:27;;;;;;;513.13;254.25;;;3.80;99.90;;;;;;5076540;28;20127;-61
2021/12/28 19:20:55;;;;;;;567.20;284.52;;;3.70;99.90;;;;;;5076804;28;20059;-61
2021/12/28 19:23:22;;;;;;;536.40;262.83;;;3.70;99.90;;;;;;5076593;28;20402;-61
2021/12/28 19:25:48;;;;;;;555.47;275.58;;;3.70;99.90;;;;;;5076411;28;20059;-61
2021/12/28 19:28:15;;;;;;;516.63;251.38;;;3.70;99.90;;;;;;5076287;28;20462;-61
2021/12/28 19:30:47;;;;;;;525.65;254.52;;;3.70;99.90;;;;;;5076238;28;20396;-61
2021/12/28 19:33:13;;;;;;;513.83;254.25;;;3.80;99.90;;;;;;5075944;28;20029;-61
2021/12/28 19:35:41;;;;;;;500.67;245.27;;;3.70;99.90;;;;;;5076384;28;20537;-61
2021/12/28 19:38:07;;;;;;;516.15;252.57;;;3.70;99.90;;;;;;5076230;28;20389;-61
2021/12/28 19:40:34;;;;;;;552.10;277.10;;;3.50;99.90;;;;;;5075995;28;20136;-61
2021/12/28 19:43:00;;;;;;;538.33;266.55;;;3.50;99.90;;;;;;5076171;28;20067;-61
2021/12/28 19:45:26;;;;;;;556.20;278.85;;;3.50;99.90;;;;;;5076076;28;20353;-61
2021/12/28 19:47:53;;;;;;;575.17;288.13;;;3.50;99.90;;;;;;5075817;28;20036;-61
2021/12/28 19:50:19;;;;;;;542.15;274.85;;;3.50;99.90;;;;;;5076186;28;20135;-61
2021/12/28 19:52:46;;;;;;;569.33;292.48;;;3.50;99.90;;;;;;5075897;28;20040;-61
2021/12/28 19:55:15;;;;;;;557.88;290.60;;;3.50;99.90;;;;;;5075797;28;20528;-61
2021/12/28 19:57:41;;;;;;;565.03;285.15;;;3.50;99.90;;;;;;5075849;28;20033;-61
2021/12/28 20:00:19;;;;;;;524.67;268.77;;;3.40;99.90;;;;;;5074839;28;20025;-61
2021/12/28 20:02:47;;;;;;;535.92;275.45;;;3.40;99.90;;;;;;5075826;28;20033;-61
2021/12/28 20:05:16;;;;;;;509.65;252.27;;;3.40;99.90;;;;;;5075883;28;20394;-61
2021/12/28 20:07:44;;;;;;;477.42;241.23;;;3.40;99.90;;;;;;5075650;28;20123;-61
2021/12/28 20:10:13;;;;;;;477.52;227.52;;;3.40;99.90;;;;;;5075734;28;20500;-61
2021/12/28 20:12:39;;;;;;;467.20;227.30;;;3.40;99.90;;;;;;5075852;28;20054;-61
2021/12/28 20:15:07;;;;;;;461.38;228.02;;;3.30;99.90;;;;;;5075350;28;20040;-62
2021/12/28 20:17:33;;;;;;;486.15;242.05;;;3.30;99.90;;;;;;5075369;28;20033;-61
2021/12/28 20:20:00;;;;;;;458.77;232.85;;;3.30;99.90;;;;;;5075748;28;20036;-61
2021/12/28 20:22:26;;;;;;;461.60;224.30;;;3.30;99.90;;;;;;5075389;28;20048;-61
2021/12/28 20:24:52;;;;;;;452.45;219.27;;;3.30;99.90;;;;;;5075506;28;20041;-62
2021/12/28 20:27:18;;;;;;;444.27;219.85;;;3.40;99.90;;;;;;5075503;28;20032;-61
2021/12/28 20:29:44;;;;;;;459.98;228.85;;;3.30;99.90;;;;;;5075267;28;20490;-62
2021/12/28 20:32:12;;;;;;;441.25;216.43;;;3.30;99.90;;;;;;5075077;28;20155;-62
2021/12/28 20:34:38;;;;;;;430.23;212.80;;;3.30;99.90;;;;;;5075293;28;20040;-61
2021/12/28 20:37:04;;;;;;;456.17;233.13;;;3.30;99.90;;;;;;5074821;28;20037;-61
2021/12/28 20:39:30;;;;;;;600.25;282.00;;;3.30;99.90;;;;;;5075025;28;20393;-62
2021/12/28 20:41:56;;;;;;;543.88;265.52;;;3.40;99.90;;;;;;5071315;28;20060;-61
2021/12/28 20:44:24;;;;;;;621.15;288.67;;;3.40;99.90;;;;;;5078711;28;20474;-61
2021/12/28 20:46:52;;;;;;;607.30;287.75;;;3.40;99.90;;;;;;5058491;28;20110;-61
2021/12/28 20:49:19;;;;;;;575.17;283.02;;;3.50;99.90;;;;;;5070977;28;20032;-61
2021/12/28 20:51:46;;;;;;;534.72;258.00;;;3.50;99.90;;;;;;5058204;28;20041;-61
2021/12/28 20:54:12;;;;;;;534.58;259.65;;;3.50;99.90;;;;;;5074457;28;20048;-62
2021/12/28 20:56:38;;;;;;;517.50;242.30;;;3.40;99.90;;;;;;5074493;28;20036;-61
2021/12/28 20:59:04;;;;;;;466.75;227.43;;;3.40;99.90;;;;;;5074681;28;20048;-61
2021/12/28 21:01:31;;;;;;;498.17;246.18;;;3.40;99.90;;;;;;5074825;28;20383;-61
2021/12/28 21:03:58;;;;;;;582.72;307.27;;;3.40;99.90;;;;;;5074616;28;20075;-61
2021/12/28 21:06:25;;;;;;;586.85;307.42;;;3.50;99.90;;;;;;5074329;28;20044;-61
2021/12/28 21:08:52;;;;;;;647.20;353.85;;;3.50;99.90;;;;;;5074674;28;20040;-61
2021/12/28 21:11:24;;;;;;;597.58;323.55;;;3.40;99.90;;;;;;5074190;28;20040;-62
2021/12/28 21:13:50;;;;;;;602.47;326.08;;;3.40;99.90;;;;;;5074437;28;20033;-62
2021/12/28 21:16:18;;;;;;;555.50;293.17;;;3.40;99.90;;;;;;5074572;28;20037;-62
2021/12/28 21:18:44;;;;;;;572.65;304.25;;;3.30;99.90;;;;;;5089833;28;20044;-62
2021/12/28 21:21:10;;;;;;;606.40;335.13;;;3.40;99.90;;;;;;5094623;28;20043;-62
2021/12/28 21:23:36;;;;;;;649.97;351.83;;;3.40;99.90;;;;;;5094520;28;20032;-62
2021/12/28 21:26:03;;;;;;;647.83;360.00;;;3.40;99.90;;;;;;5094404;28;20028;-62
2021/12/28 21:28:29;;;;;;;687.28;377.33;;;3.50;99.90;;;;;;5094559;28;20107;-62
2021/12/28 21:30:55;;;;;;;773.78;420.75;;;3.50;99.90;;;;;;5094669;28;20031;-62
2021/12/28 21:33:25;;;;;;;768.03;421.40;;;3.50;99.90;;;;;;5094656;28;20054;-62
2021/12/28 21:35:53;;;;;;;764.17;422.97;;;3.50;99.90;;;;;;5094613;28;20414;-62
2021/12/28 21:38:23;;;;;;;736.40;410.98;;;3.50;99.90;;;;;;5094299;28;20028;-62
2021/12/28 21:40:51;;;;;;;708.05;387.35;;;3.60;99.90;;;;;;5094489;28;20119;-62
2021/12/28 21:43:17;;;;;;;669.50;364.55;;;3.70;99.90;;;;;;5094390;28;20043;-62
2021/12/28 21:45:44;;;;;;;654.72;347.85;;;3.70;99.90;;;;;;5094110;28;20043;-62
2021/12/28 21:48:10;;;;;;;724.88;396.45;;;3.80;99.90;;;;;;5094250;28;20514;-62
2021/12/28 21:50:36;;;;;;;730.50;392.67;;;3.90;99.90;;;;;;5094375;28;20060;-62
2021/12/28 21:53:02;;;;;;;661.92;354.70;;;4.00;99.90;;;;;;5094185;28;20051;-62
2021/12/28 21:55:30;;;;;;;640.55;340.52;;;4.10;99.90;;;;;;5094716;28;20049;-62
2021/12/28 21:57:56;;;;;;;741.53;414.63;;;4.10;99.90;;;;;;5094250;28;20444;-61
2021/12/28 22:00:26;;;;;;;697.13;384.45;;;4.10;99.90;;;;;;5094303;28;20031;-61
2021/12/28 22:02:53;;;;;;;668.95;367.95;;;4.10;99.90;;;;;;5094328;28;20070;-63
2021/12/28 22:05:21;;;;;;;580.40;309.95;;;4.10;99.90;;;;;;5094092;28;20024;-62
2021/12/28 22:07:52;;;;;;;663.22;362.65;;;4.10;99.90;;;;;;5094161;28;20162;-62
2021/12/28 22:10:19;;;;;;;726.63;399.77;;;4.20;99.90;;;;;;5094414;28;20036;-62
2021/12/28 22:12:45;;;;;;;734.38;404.58;;;4.20;99.90;;;;;;5084633;28;20119;-62
2021/12/28 22:15:12;;;;;;;717.58;393.75;;;4.30;99.90;;;;;;5073827;28;20049;-62
2021/12/28 22:17:39;;;;;;;735.53;414.27;;;4.40;99.90;;;;;;5073472;28;20035;-62
2021/12/28 22:20:07;;;;;;;733.90;409.70;;;4.40;99.90;;;;;;5073960;28;20039;-62
2021/12/28 22:22:33;;;;;;;742.80;412.95;;;4.40;99.90;;;;;;5075301;28;20036;-62
2021/12/28 22:24:59;;;;;;;748.50;412.73;;;4.50;99.90;;;;;;5077548;28;20402;-62
2021/12/28 22:27:25;;;;;;;731.50;409.95;;;4.40;99.90;;;;;;5077505;28;20064;-62
2021/12/28 22:29:52;;;;;;;758.65;421.08;;;4.40;99.90;;;;;;5077540;28;20398;-62
2021/12/28 22:32:19;;;;;;;762.55;422.52;;;4.40;99.90;;;;;;5077394;28;20402;-62
2021/12/28 22:34:47;;;;;;;768.72;421.98;;;4.50;99.90;;;;;;5077563;28;20533;-62
2021/12/28 22:37:13;;;;;;;755.92;419.05;;;4.60;99.90;;;;;;5077281;28;20033;-62
2021/12/28 22:39:40;;;;;;;750.80;411.05;;;4.60;99.90;;;;;;5077348;28;20074;-62
2021/12/28 22:42:07;;;;;;;746.65;411.67;;;4.60;99.90;;;;;;5077256;28;20029;-62
2021/12/28 22:44:34;;;;;;;711.95;392.52;;;4.60;99.90;;;;;;5077089;28;20374;-62
2021/12/28 22:47:02;;;;;;;717.28;400.17;;;4.60;99.90;;;;;;5077194;28;20042;-62
2021/12/28 22:49:29;;;;;;;706.08;384.55;;;4.70;99.90;;;;;;5077238;28;20044;-62
2021/12/28 22:51:55;;;;;;;694.25;378.15;;;4.70;99.90;;;;;;5077057;28;20569;-62
2021/12/28 22:54:21;;;;;;;680.13;369.10;;;4.70;99.90;;;;;;5076958;28;20067;-62
2021/12/28 22:56:47;;;;;;;684.30;370.90;;;4.70;99.90;;;;;;5077362;28;20387;-62
2021/12/28 22:59:13;;;;;;;674.67;362.33;;;4.70;99.90;;;;;;5076975;28;20043;-62
2021/12/28 23:01:39;;;;;;;785.58;412.10;;;4.70;99.90;;;;;;5077161;28;20051;-62
2021/12/28 23:04:07;;;;;;;764.55;389.38;;;4.70;99.90;;;;;;5076979;28;20116;-62
2021/12/28 23:06:33;;;;;;;734.95;386.35;;;4.80;99.90;;;;;;5076921;28;20044;-62
2021/12/28 23:09:01;;;;;;;670.22;362.55;;;4.70;99.90;;;;;;5077106;28;20402;-62
2021/12/28 23:11:32;;;;;;;691.20;380.25;;;4.70;99.90;;;;;;5077040;28;20037;-62
2021/12/28 23:13:59;;;;;;;707.45;379.38;;;4.80;99.90;;;;;;5076801;28;20056;-62
2021/12/28 23:16:26;;;;;;;665.45;363.35;;;4.80;99.90;;;;;;5076689;28;20493;-62
2021/12/28 23:18:52;;;;;;;617.83;327.48;;;4.70;99.90;;;;;;5076604;28;20033;-62
2021/12/28 23:21:19;;;;;;;537.42;278.73;;;4.70;99.90;;;;;;5076639;28;20047;-62
2021/12/28 23:23:44;;;;;;;513.92;255.93;;;4.70;99.90;;;;;;5076581;28;20024;-62
2021/12/28 23:26:10;;;;;;;515.28;264.60;;;4.60;99.90;;;;;;5076543;28;20094;-62
2021/12/28 23:28:36;;;;;;;516.40;260.17;;;4.60;99.90;;;;;;5076401;28;20040;-62
2021/12/28 23:31:05;;;;;;;519.30;266.10;;;4.60;99.90;;;;;;5076579;28;20393;-62